• Join FlightAware (Why Join?)
  • Login
  • US Flag 
08:45PM EDT


 

Airport Tracker/Info


-or-


 

Live Flight TrackerFlight Track Log ✈ AAY272 ✈ 28-Apr-2013 ✈ KLAS - KFAT

Flight Track Log - Related Links

Times and Time Zones

All times are in EDT time to prevent confusion due to time zone crossing. See the AAY272 flight status page for this flight to view local times or setup timezone preferences in your user account.

Time Position Orientation Groundspeed Altitude Reporting Facility
EDT Latitude Longitude Course Direction KTS MPH feet Rate Location/Type
04:46PM 36.0753 -115.1739 266° West 173 199 3,000  Level Los Angeles Center
04:47PM 36.0706 -115.2525 266° West 220 253 5,000 1,740 Climbing Los Angeles Center
04:48PM 36.0072 -115.2892 205° Southwest 272 313 6,800 2,340 Climbing Los Angeles Center
04:49PM 35.9433 -115.3392 212° Southwest 271 312 10,000 1,980 Climbing Los Angeles Center
04:50PM 35.9233 -115.4378 256° West 293 337 11,400 1,920 Climbing Los Angeles Center
04:51PM 35.9158 -115.5836 266° West 336 387 14,400 2,460 Climbing Los Angeles Center
04:52PM 35.9078 -115.7161 266° West 362 417 16,600 1,500 Climbing Los Angeles Center
04:53PM 35.9011 -115.8481 266° West 390 449 17,600 1,080 Climbing Los Angeles Center
04:54PM 35.9247 -115.9667 284° West 415 478 18,900 1,740 Climbing Los Angeles Center
04:55PM 35.9708 -116.1381 288° West 427 491 21,200 1,980 Climbing Los Angeles Center
04:56PM 36.0064 -116.2853 287° West 438 504 23,000 1,620 Climbing Los Angeles Center
04:57PM 36.0406 -116.4328 286° West 444 511 24,600 1,680 Climbing Los Angeles Center
04:58PM 36.0781 -116.5781 288° West 447 514 26,500 1,680 Climbing Los Angeles Center
04:59PM 36.1233 -116.7153 292° West 438 504 28,100 1,440 Climbing Los Angeles Center
05:00PM 36.1772 -116.8486 297° West 435 501 29,500 900 Climbing Los Angeles Center
05:01PM 36.2436 -117.0075 297° West 435 501 30,000 240 Climbing Los Angeles Center
05:02PM 36.2867 -117.1131 297° West 433 498 30,000  Level Los Angeles Center
05:03PM 36.3533 -117.2714 298° West 434 499 30,000  Level Los Angeles Center
05:04PM 36.3947 -117.4097 290° West 432 497 30,000  Level Los Angeles Center
05:06PM 36.4194 -117.5564 282° West 435 501 30,000 -360 Level Los Angeles Center
05:07PM 36.4517 -117.7281 283° West 432 497 29,300 -720 Descending Los Angeles Center
05:08PM 36.4758 -117.8739 282° West 430 495 28,600 -900 Descending Los Angeles Center
05:09PM 36.5008 -118.0169 282° West 430 495 27,500 -1,080 Descending Los Angeles Center
05:10PM 36.5244 -118.1561 282° West 419 482 26,400 -1,620 Descending Los Angeles Center
05:10PM 36.5322 -118.2089 280° West 419 482 25,400 -3,600 Descending Oakland Center
05:11PM 36.5544 -118.3494 281° West 415 478 21,600 -2,640 Descending Oakland Center
05:12PM 36.5853 -118.5039 284° West 411 473 20,000 -840 Descending Oakland Center
05:13PM 36.6036 -118.6219 281° West 391 450 20,000 -120 Level Oakland Center
05:14PM 36.6125 -118.7542 275° West 386 444 19,800 -1,200 Descending Oakland Center
05:15PM 36.6236 -118.8836 276° West 380 437 17,600 -2,160 Descending Oakland Center
05:16PM 36.6342 -119.0353 275° West 365 420 15,500 -1,500 Descending Oakland Center
05:17PM 36.6444 -119.1478 277° West 329 379 14,600 -1,800 Descending Oakland Center
05:18PM 36.6497 -119.2578 273° West 320 368 11,900 -2,460 Descending Oakland Center
05:19PM 36.6578 -119.3703 275° West 325 374 9,700 -1,980 Descending Oakland Center
05:20PM 36.6442 -119.4653 260° West 284 327 7,900 -1,800 Descending Oakland Center